createdAt,value
2022-08-08T00:00:59.769Z,100878.69
2022-08-08T00:03:32.083Z,100881.19
2022-08-08T00:06:09.825Z,100880.38
2022-08-08T00:09:12.081Z,100877.06
2022-08-08T00:11:46.950Z,100875.66
2022-08-08T00:14:59.291Z,100874.84
2022-08-08T00:18:02.163Z,100874.31
2022-08-08T00:20:44.743Z,100867.66
2022-08-08T00:23:15.536Z,100874.31
2022-08-08T00:25:51.094Z,100878.69
2022-08-08T00:28:35.180Z,100878.16
2022-08-08T00:32:16.426Z,100877.06
2022-08-08T00:34:46.247Z,100883.13
2022-08-08T00:37:47.167Z,100875.66
2022-08-08T00:41:12.144Z,100876.50
2022-08-08T00:43:40.545Z,100879.53
2022-08-08T00:46:23.927Z,100880.91
2022-08-08T00:49:22.721Z,100881.19
2022-08-08T00:52:06.197Z,100876.75
2022-08-08T00:54:46.675Z,100882.81
2022-08-08T00:57:57.932Z,100876.75
2022-08-08T01:00:34.535Z,100872.38
2022-08-08T01:04:01.190Z,100883.41
2022-08-08T01:07:05.951Z,100878.44
2022-08-08T01:10:16.907Z,100884.78
2022-08-08T01:13:43.723Z,100877.63
2022-08-08T01:16:34.613Z,100868.22
2022-08-08T01:20:01.266Z,100870.16
2022-08-08T01:22:38.890Z,100876.75
2022-08-08T01:25:40.603Z,100870.69
2022-08-08T01:28:38.579Z,100868.78
2022-08-08T01:32:13.196Z,100875.38
2022-08-08T01:35:01.380Z,100869.88
2022-08-08T01:38:17.297Z,100872.63
2022-08-08T01:41:09.928Z,100869.59
2022-08-08T01:43:45.940Z,100868.78
2022-08-08T01:46:47.705Z,100870.16
2022-08-08T01:49:51.599Z,100860.78
2022-08-08T01:53:35.331Z,100849.47
2022-08-08T01:56:26.862Z,100854.44
2022-08-08T01:58:58.487Z,100863.53
2022-08-08T02:02:00.228Z,100851.38
2022-08-08T02:04:52.128Z,100848.63
2022-08-08T02:07:24.172Z,100846.97
2022-08-08T02:10:12.418Z,100850.56
2022-08-08T02:12:55.619Z,100848.06
2022-08-08T02:15:34.905Z,100846.16
2022-08-08T02:18:33.941Z,100838.97
2022-08-08T02:21:35.579Z,100835.94
2022-08-08T02:24:10.092Z,100838.97
2022-08-08T02:26:52.110Z,100837.28
2022-08-08T02:29:46.757Z,100832.63
2022-08-08T02:32:31.053Z,100827.13
2022-08-08T02:35:07.971Z,100828.75
2022-08-08T02:37:53.019Z,100832.63
2022-08-08T02:40:40.314Z,100836.22
2022-08-08T02:44:42.917Z,100845.88
2022-08-08T02:46:22.343Z,100841.72
2022-08-08T02:49:18.659Z,100842.81
2022-08-08T02:52:35.095Z,100832.63
2022-08-08T02:55:19.929Z,100842.53
2022-08-08T02:58:15.262Z,100838.97
2022-08-08T03:01:15.031Z,100836.22
2022-08-08T03:05:03.899Z,100836.22
2022-08-08T03:07:25.385Z,100837.84
2022-08-08T03:10:31.669Z,100834.53
2022-08-08T03:15:53.849Z,100831.25
2022-08-08T03:16:37.736Z,100830.69
2022-08-08T03:19:50.816Z,100828.47
2022-08-08T03:22:38.792Z,100834.81
2022-08-08T03:25:18.849Z,100841.72
2022-08-08T03:27:56.470Z,100838.16
2022-08-08T03:30:26.724Z,100834.53
2022-08-08T03:33:55.190Z,100835.38
2022-08-08T03:36:02.626Z,100832.63
2022-08-08T03:38:56.269Z,100837.03
2022-08-08T03:42:11.420Z,100833.44
2022-08-08T03:44:08.856Z,100833.19
2022-08-08T03:46:47.162Z,100836.22
2022-08-08T03:49:57.327Z,100826.84
2022-08-08T03:52:13.176Z,100829.59
2022-08-08T03:55:02.611Z,100834.28
2022-08-08T03:58:31.129Z,100837.88
2022-08-08T04:00:20.565Z,100838.69
2022-08-08T04:03:02.102Z,100841.72
2022-08-08T04:05:35.063Z,100839.78
2022-08-08T04:08:32.835Z,100840.06
2022-08-08T04:11:02.728Z,100842.53
2022-08-08T04:14:03.676Z,100842.53
2022-08-08T04:16:38.572Z,100839.25
2022-08-08T04:19:23.639Z,100837.28
2022-08-08T04:21:55.720Z,100843.94
2022-08-08T04:24:30.553Z,100850.00
2022-08-08T04:26:59.354Z,100847.25
2022-08-08T04:29:36.639Z,100852.75
2022-08-08T04:32:07.480Z,100857.47
2022-08-08T04:34:49.348Z,100850.00
2022-08-08T04:37:26.297Z,100855.53
2022-08-08T04:40:06.434Z,100854.72
2022-08-08T04:42:37.502Z,100853.59
2022-08-08T04:45:14.573Z,100859.38
2022-08-08T04:47:43.493Z,100857.47
2022-08-08T04:50:25.197Z,100858.28
2022-08-08T04:52:58.521Z,100855.25
2022-08-08T04:55:37.687Z,100859.94
2022-08-08T04:58:17.641Z,100862.13
2022-08-08T05:00:47.579Z,100864.06
2022-08-08T05:04:06.488Z,100862.13
2022-08-08T05:06:12.232Z,100861.88
2022-08-08T05:08:43.139Z,100861.88
2022-08-08T05:11:18.726Z,100858.28
2022-08-08T05:13:58.099Z,100860.22
2022-08-08T05:16:54.355Z,100859.94
2022-08-08T05:20:09.271Z,100861.88
2022-08-08T05:22:08.418Z,100861.59
2022-08-08T05:24:38.566Z,100861.03
2022-08-08T05:27:06.636Z,100858.84
2022-08-08T05:29:37.124Z,100860.78
2022-08-08T05:32:08.172Z,100861.59
2022-08-08T05:34:40.941Z,100853.31
2022-08-08T05:37:19.304Z,100857.19
2022-08-08T05:39:54.324Z,100851.69
2022-08-08T05:42:42.701Z,100856.34
2022-08-08T05:45:25.598Z,100861.59
2022-08-08T05:48:08.965Z,100867.94
2022-08-08T05:50:38.785Z,100863.53
2022-08-08T05:53:54.059Z,100871.53
2022-08-08T05:56:08.003Z,100870.69
2022-08-08T05:58:54.055Z,100878.16
2022-08-08T06:01:56.577Z,100889.75
2022-08-08T06:04:23.328Z,100881.19
2022-08-08T06:06:56.376Z,100896.94
2022-08-08T06:10:00.666Z,100895.25
2022-08-08T06:12:18.396Z,100903.25
2022-08-08T06:14:47.676Z,100909.06
2022-08-08T06:17:19.512Z,100906.03
2022-08-08T06:19:56.315Z,100898.84
2022-08-08T06:22:42.091Z,100898.84
2022-08-08T06:25:15.746Z,100903.25
2022-08-08T06:27:55.127Z,100912.38
2022-08-08T06:30:28.321Z,100917.06
2022-08-08T06:33:01.353Z,100924.22
2022-08-08T06:36:07.222Z,100926.97
2022-08-08T06:38:27.547Z,100934.44
2022-08-08T06:40:59.620Z,100938.03
2022-08-08T06:43:34.110Z,100940.78
2022-08-08T06:46:13.285Z,100953.50
2022-08-08T06:48:46.030Z,100952.94
2022-08-08T06:51:14.185Z,100955.69
2022-08-08T06:53:50.537Z,100951.00
2022-08-08T06:56:24.989Z,100951.00
2022-08-08T06:58:54.646Z,100960.94
2022-08-08T07:02:21.465Z,100956.25
2022-08-08T07:04:41.544Z,100960.09
2022-08-08T07:07:18.779Z,100959.00
2022-08-08T07:10:08.756Z,100961.78
2022-08-08T07:12:41.233Z,100959.84
2022-08-08T07:15:31.798Z,100959.28
2022-08-08T07:18:36.612Z,100963.72
2022-08-08T07:21:04.579Z,100967.28
2022-08-08T07:24:01.526Z,100969.22
2022-08-08T07:26:35.743Z,100966.16
2022-08-08T07:29:08.126Z,100963.72
2022-08-08T07:31:39.762Z,100974.75
2022-08-08T07:34:08.819Z,100973.06
2022-08-08T07:36:48.325Z,100968.38
2022-08-08T07:39:29.169Z,100973.06
2022-08-08T07:42:04.334Z,100978.59
2022-08-08T07:44:37.325Z,100975.56
2022-08-08T07:47:08.891Z,100980.28
2022-08-08T07:49:40.109Z,100980.28
2022-08-08T07:52:13.297Z,100980.28
2022-08-08T07:55:02.603Z,100979.97
2022-08-08T07:57:36.430Z,100978.06
2022-08-08T08:00:13.455Z,100991.00
2022-08-08T08:02:56.444Z,100986.59
2022-08-08T08:05:33.640Z,100983.59
2022-08-08T08:08:20.732Z,100986.59
2022-08-08T08:10:51.438Z,100984.66
2022-08-08T08:13:43.003Z,100992.13
2022-08-08T08:16:26.659Z,100994.31
2022-08-08T08:19:01.864Z,100987.16
2022-08-08T08:21:52.811Z,100991.88
2022-08-08T08:24:52.080Z,100985.22
2022-08-08T08:27:22.200Z,100981.63
2022-08-08T08:29:54.379Z,100980.81
2022-08-08T08:32:31.872Z,100987.16
2022-08-08T08:35:07.080Z,100992.69
2022-08-08T08:37:58.940Z,100981.09
2022-08-08T08:40:23.923Z,100982.72
2022-08-08T08:42:53.372Z,100989.09
2022-08-08T08:45:23.638Z,100991.88
2022-08-08T08:47:58.493Z,100988.25
2022-08-08T08:50:34.969Z,100992.13
2022-08-08T08:53:27.586Z,100993.78
2022-08-08T08:56:03.072Z,100991.88
2022-08-08T08:58:42.906Z,100986.59
2022-08-08T09:01:15.693Z,100985.50
2022-08-08T09:03:50.666Z,100989.09
2022-08-08T09:06:34.354Z,100983.84
2022-08-08T09:09:18.715Z,100986.34
2022-08-08T09:12:01.555Z,100991.56
2022-08-08T09:14:32.854Z,100983.59
2022-08-08T09:17:09.754Z,100982.47
2022-08-08T09:22:01.965Z,100988.25
2022-08-08T09:22:29.355Z,100973.38
2022-08-08T09:24:58.782Z,100976.13
2022-08-08T09:27:56.237Z,100974.44
2022-08-08T09:30:17.755Z,100972.25
2022-08-08T09:33:55.510Z,100967.84
2022-08-08T09:35:49.789Z,100971.16
2022-08-08T09:38:35.420Z,100966.72
2022-08-08T09:41:54.662Z,100957.63
2022-08-08T09:45:15.735Z,100963.41
2022-08-08T09:48:04.117Z,100959.28
2022-08-08T09:50:43.887Z,100954.03
2022-08-08T09:53:24.882Z,100955.69
2022-08-08T09:56:06.670Z,100955.69
2022-08-08T09:58:44.936Z,100949.63
2022-08-08T10:01:15.461Z,100941.88
2022-08-08T10:04:02.439Z,100950.16
2022-08-08T10:06:32.393Z,100951.84
2022-08-08T10:09:00.285Z,100945.75
2022-08-08T10:12:26.220Z,100931.41
2022-08-08T10:14:27.653Z,100942.19
2022-08-08T10:16:56.856Z,100934.47
2022-08-08T10:19:57.240Z,100941.34
2022-08-08T10:22:22.453Z,100936.38
2022-08-08T10:24:51.145Z,100934.47
2022-08-08T10:27:20.342Z,100929.22
2022-08-08T10:29:59.104Z,100924.78
2022-08-08T10:32:48.683Z,100924.50
2022-08-08T10:36:09.079Z,100920.94
2022-08-08T10:38:13.523Z,100910.72
2022-08-08T10:40:41.227Z,100919.81
2022-08-08T10:43:09.809Z,100919.81
2022-08-08T10:45:57.202Z,100912.66
2022-08-08T10:48:37.314Z,100907.94
2022-08-08T10:51:47.299Z,100906.84
2022-08-08T10:54:25.208Z,100903.25
2022-08-08T10:57:03.939Z,100903.25
2022-08-08T10:59:39.916Z,100898.59
2022-08-08T11:02:11.558Z,100904.38
2022-08-08T11:04:53.173Z,100901.59
2022-08-08T11:07:40.734Z,100890.56
2022-08-08T11:10:28.523Z,100897.72
2022-08-08T11:13:25.503Z,100887.81
2022-08-08T11:15:53.125Z,100885.88
2022-08-08T11:18:30.354Z,100891.38
2022-08-08T11:20:58.990Z,100890.56
2022-08-08T11:23:31.319Z,100887.00
2022-08-08T11:26:05.323Z,100888.63
2022-08-08T11:28:38.678Z,100884.22
2022-08-08T11:31:09.627Z,100891.66
2022-08-08T11:33:52.963Z,100883.38
2022-08-08T11:36:27.819Z,100878.41
2022-08-08T11:38:57.022Z,100880.34
2022-08-08T11:41:28.172Z,100876.78
2022-08-08T11:44:00.543Z,100870.44
2022-08-08T11:46:31.463Z,100868.50
2022-08-08T11:49:01.634Z,100874.00
2022-08-08T11:51:38.518Z,100876.78
2022-08-08T11:54:13.731Z,100870.44
2022-08-08T11:56:56.350Z,100875.66
2022-08-08T11:59:57.876Z,100869.59
2022-08-08T12:02:35.881Z,100866.84
2022-08-08T12:05:07.949Z,100873.16
2022-08-08T12:07:53.964Z,100876.50
2022-08-08T12:10:25.686Z,100875.66
2022-08-08T12:13:03.282Z,100868.75
2022-08-08T12:15:42.515Z,100874.00
2022-08-08T12:18:13.926Z,100870.44
2022-08-08T12:20:43.513Z,100866.56
2022-08-08T12:23:25.155Z,100865.19
2022-08-08T12:26:17.379Z,100866.00
2022-08-08T12:28:56.935Z,100865.72
2022-08-08T12:31:39.115Z,100860.47
2022-08-08T12:34:42.844Z,100860.22
2022-08-08T12:37:12.332Z,100852.75
2022-08-08T12:39:59.813Z,100855.50
2022-08-08T12:42:33.792Z,100861.84
2022-08-08T12:45:53.847Z,100859.09
2022-08-08T12:48:10.037Z,100859.09
2022-08-08T12:51:04.467Z,100856.34
2022-08-08T12:53:36.381Z,100859.41
2022-08-08T12:56:19.756Z,100861.31
2022-08-08T12:58:55.196Z,100859.38
2022-08-08T13:01:36.999Z,100858.56
2022-08-08T13:04:24.370Z,100854.13
2022-08-08T13:07:00.646Z,100850.00
2022-08-08T13:09:33.032Z,100857.19
2022-08-08T13:12:26.893Z,100852.75
2022-08-08T13:14:52.835Z,100844.75
2022-08-08T13:17:54.229Z,100844.75
2022-08-08T13:20:15.468Z,100839.22
2022-08-08T13:22:46.240Z,100840.06
2022-08-08T13:25:18.637Z,100837.59
2022-08-08T13:27:53.194Z,100833.72
2022-08-08T13:30:28.144Z,100836.47
2022-08-08T13:32:57.133Z,100833.44
2022-08-08T13:35:38.376Z,100828.19
2022-08-08T13:38:13.454Z,100824.34
2022-08-08T13:40:45.172Z,100824.59
2022-08-08T13:43:16.035Z,100824.34
2022-08-08T13:45:47.436Z,100817.16
2022-08-08T13:48:16.244Z,100825.16
2022-08-08T13:50:55.050Z,100828.19
2022-08-08T13:53:34.096Z,100822.66
2022-08-08T13:56:10.960Z,100816.06
2022-08-08T13:58:56.037Z,100811.63
2022-08-08T14:01:23.748Z,100810.50
2022-08-08T14:04:09.779Z,100798.66
2022-08-08T14:06:44.523Z,100800.03
2022-08-08T14:09:25.228Z,100794.81
2022-08-08T14:11:59.884Z,100790.09
2022-08-08T14:14:44.068Z,100804.19
2022-08-08T14:17:22.505Z,100795.91
2022-08-08T14:20:07.244Z,100791.22
2022-08-08T14:22:43.077Z,100791.22
2022-08-08T14:25:17.600Z,100785.69
2022-08-08T14:27:59.804Z,100778.50
2022-08-08T14:30:33.682Z,100776.31
2022-08-08T14:33:12.676Z,100772.19
2022-08-08T14:35:43.150Z,100769.16
2022-08-08T14:38:33.440Z,100769.16
2022-08-08T14:41:02.295Z,100765.25
2022-08-08T14:44:02.266Z,100762.81
2022-08-08T14:46:22.225Z,100767.19
2022-08-08T14:49:20.575Z,100770.78
2022-08-08T14:52:07.907Z,100765.84
2022-08-08T14:54:48.069Z,100769.16
2022-08-08T14:57:16.664Z,100761.97
2022-08-08T14:59:51.352Z,100762.25
2022-08-08T15:02:30.586Z,100764.72
2022-08-08T15:05:08.298Z,100764.44
2022-08-08T15:07:40.358Z,100760.88
2022-08-08T15:10:11.632Z,100763.63
2022-08-08T15:12:40.850Z,100760.88
2022-08-08T15:15:10.041Z,100764.72
2022-08-08T15:17:38.066Z,100762.25
2022-08-08T15:20:14.297Z,100766.66
2022-08-08T15:22:42.703Z,100770.22
2022-08-08T15:25:18.002Z,100767.47
2022-08-08T15:28:04.262Z,100767.47
2022-08-08T15:30:45.887Z,100771.09
2022-08-08T15:33:35.005Z,100769.16
2022-08-08T15:36:04.091Z,100776.31
2022-08-08T15:38:31.532Z,100780.19
2022-08-08T15:40:59.519Z,100774.66
2022-08-08T15:43:35.861Z,100774.66
2022-08-08T15:46:05.035Z,100779.06
2022-08-08T15:48:32.492Z,100784.88
2022-08-08T15:51:06.532Z,100784.59
2022-08-08T15:53:48.907Z,100780.19
2022-08-08T15:56:19.785Z,100782.94
2022-08-08T15:58:49.190Z,100790.09
2022-08-08T16:01:21.050Z,100784.59
2022-08-08T16:03:51.880Z,100787.34
2022-08-08T16:06:27.825Z,100784.59
2022-08-08T16:13:00.359Z,100791.22
2022-08-08T16:13:20.477Z,100790.94
2022-08-08T16:14:35.912Z,100790.09
2022-08-08T16:17:05.003Z,100792.84
2022-08-08T16:19:59.741Z,100790.09
2022-08-08T16:22:30.139Z,100796.47
2022-08-08T16:24:58.851Z,100796.75
2022-08-08T16:27:35.354Z,100795.63
2022-08-08T16:30:08.172Z,100789.56
2022-08-08T16:32:41.930Z,100787.34
2022-08-08T16:35:09.788Z,100785.69
2022-08-08T16:37:40.482Z,100777.69
2022-08-08T16:40:14.242Z,100784.03
2022-08-08T16:42:51.637Z,100785.69
2022-08-08T16:46:37.296Z,100782.41
2022-08-08T16:48:41.003Z,100773.84
2022-08-08T16:55:01.630Z,100772.72
2022-08-08T16:55:03.023Z,100770.78
2022-08-08T16:57:01.745Z,100781.81
2022-08-08T16:59:50.716Z,100771.91
2022-08-08T17:02:32.735Z,100777.16
2022-08-08T17:05:16.176Z,100775.47
2022-08-08T17:07:46.837Z,100779.91
2022-08-08T17:10:19.332Z,100781.00
2022-08-08T17:12:52.866Z,100778.50
2022-08-08T17:15:25.340Z,100774.13
2022-08-08T17:18:11.957Z,100774.66
2022-08-08T17:20:43.203Z,100786.53
2022-08-08T17:23:25.792Z,100789.00
2022-08-08T17:26:05.023Z,100781.00
2022-08-08T17:28:34.969Z,100788.47
2022-08-08T17:31:43.521Z,100793.97
2022-08-08T17:34:36.070Z,100794.25
2022-08-08T17:36:55.502Z,100795.63
2022-08-08T17:40:04.867Z,100800.03
2022-08-08T17:42:16.347Z,100813.84
2022-08-08T17:44:46.249Z,100821.56
2022-08-08T17:47:27.653Z,100829.59
2022-08-08T17:50:02.423Z,100816.88
2022-08-08T17:52:34.193Z,100820.75
2022-08-08T17:56:04.040Z,100827.09
2022-08-08T17:57:54.045Z,100829.59
2022-08-08T18:00:30.191Z,100834.25
2022-08-08T18:03:09.337Z,100840.06
2022-08-08T18:05:48.502Z,100836.47
2022-08-08T18:08:24.783Z,100844.75
2022-08-08T18:11:15.378Z,100854.97
2022-08-08T18:13:47.020Z,100847.50
2022-08-08T18:16:20.688Z,100854.69
2022-08-08T18:18:56.531Z,100868.50
2022-08-08T18:21:59.636Z,100868.50
2022-08-08T18:24:18.774Z,100872.06
2022-08-08T18:26:54.730Z,100876.50
2022-08-08T18:29:27.402Z,100876.78
2022-08-08T18:32:07.978Z,100887.00
2022-08-08T18:34:36.367Z,100885.06
2022-08-08T18:37:08.527Z,100885.31
2022-08-08T18:39:37.872Z,100888.63
2022-08-08T18:42:13.058Z,100891.38
2022-08-08T18:44:42.358Z,100897.72
2022-08-08T18:47:23.920Z,100907.69
2022-08-08T18:49:58.575Z,100912.38
2022-08-08T18:52:30.087Z,100924.25
2022-08-08T18:54:59.585Z,100930.84
2022-08-08T18:57:40.732Z,100932.53
2022-08-08T19:00:16.999Z,100934.72
2022-08-08T19:02:56.905Z,100931.97
2022-08-08T19:05:32.025Z,100935.53
2022-08-08T19:08:24.943Z,100927.53
2022-08-08T19:10:57.739Z,100939.97
2022-08-08T19:13:53.047Z,100933.91
2022-08-08T19:16:18.301Z,100946.31
2022-08-08T19:18:53.174Z,100951.84
2022-08-08T19:21:30.713Z,100951.00
2022-08-08T19:24:00.480Z,100949.34
2022-08-08T19:26:30.191Z,100951.84
2022-08-08T19:28:59.738Z,100965.91
2022-08-08T19:31:31.558Z,100963.41
2022-08-08T19:34:35.605Z,100965.09
2022-08-08T19:36:55.032Z,100964.81
2022-08-08T19:39:23.312Z,100965.91
2022-08-08T19:41:53.787Z,100970.59
2022-08-08T19:44:42.547Z,100974.44
2022-08-08T19:47:12.296Z,100980.53
2022-08-08T19:49:43.542Z,100982.19
2022-08-08T19:52:35.011Z,100976.13
2022-08-08T19:55:11.370Z,100986.91
2022-08-08T19:57:43.414Z,100985.22
2022-08-08T20:00:29.994Z,100981.91
2022-08-08T20:03:00.593Z,100973.63
2022-08-08T20:06:15.522Z,100978.88
2022-08-08T20:08:28.022Z,100979.69
2022-08-08T20:11:00.323Z,100977.75
2022-08-08T20:14:13.310Z,100976.94
2022-08-08T20:16:17.077Z,100987.97
2022-08-08T20:18:52.525Z,100982.72
2022-08-08T20:21:25.319Z,100977.22
2022-08-08T20:23:57.772Z,100974.44
2022-08-08T20:26:33.815Z,100982.72
2022-08-08T20:29:04.719Z,100985.50
2022-08-08T20:32:02.891Z,100986.03
2022-08-08T20:34:28.953Z,100979.16
2022-08-08T20:37:03.108Z,100977.22
2022-08-08T20:39:39.753Z,100978.06
2022-08-08T20:42:20.408Z,100983.28
2022-08-08T20:44:54.344Z,100979.69
2022-08-08T20:47:24.015Z,100976.13
2022-08-08T20:49:54.428Z,100989.09
2022-08-08T20:52:27.768Z,100991.88
2022-08-08T20:54:56.467Z,100988.25
2022-08-08T20:57:26.884Z,100991.00
2022-08-08T20:59:57.795Z,100993.78
2022-08-08T21:02:29.404Z,100997.38
2022-08-08T21:05:01.139Z,101002.34
2022-08-08T21:07:47.707Z,101001.22
2022-08-08T21:10:17.839Z,101000.13
2022-08-08T21:12:52.963Z,100995.72
2022-08-08T21:16:05.911Z,100998.47
2022-08-08T21:18:09.746Z,101004.81
2022-08-08T21:20:41.991Z,101004.00
2022-08-08T21:23:09.980Z,101007.00
2022-08-08T21:25:40.819Z,101014.22
2022-08-08T21:28:15.872Z,101020.81
2022-08-08T21:30:51.946Z,101015.28
2022-08-08T21:33:20.671Z,101021.94
2022-08-08T21:36:19.065Z,101021.09
2022-08-08T21:38:36.052Z,101018.06
2022-08-08T21:41:03.436Z,101021.09
2022-08-08T21:43:34.112Z,101025.78
2022-08-08T21:48:02.391Z,101028.84
2022-08-08T21:48:56.839Z,101031.84
2022-08-08T21:54:18.154Z,101046.50
2022-08-08T21:54:27.450Z,101044.81
2022-08-08T21:57:01.427Z,101053.66
2022-08-08T22:00:01.459Z,101059.44
2022-08-08T22:02:19.482Z,101068.56
2022-08-08T22:04:55.965Z,101068.84
2022-08-08T22:07:39.641Z,101075.19
2022-08-08T22:10:09.672Z,101080.97
2022-08-08T22:12:38.913Z,101088.16
2022-08-08T22:15:07.372Z,101080.16
2022-08-08T22:17:41.524Z,101087.34
2022-08-08T22:20:23.670Z,101089.25
2022-08-08T22:22:57.791Z,101084.03
2022-08-08T22:25:41.662Z,101086.50
2022-08-08T22:29:13.701Z,101088.44
2022-08-08T22:31:07.553Z,101079.06
2022-08-08T22:34:13.478Z,101093.13
2022-08-08T22:36:34.220Z,101088.16
2022-08-08T22:39:02.105Z,101090.09
2022-08-08T22:41:34.176Z,101088.44
2022-08-08T22:44:05.788Z,101088.44
2022-08-08T22:46:38.952Z,101088.69
2022-08-08T22:49:09.296Z,101089.53
2022-08-08T22:51:42.525Z,101092.31
2022-08-08T22:54:31.046Z,101094.22
2022-08-08T22:57:08.712Z,101081.25
2022-08-08T22:59:48.570Z,101093.13
2022-08-08T23:02:28.851Z,101091.19
2022-08-08T23:04:56.480Z,101090.63
2022-08-08T23:07:51.786Z,101085.13
2022-08-08T23:10:19.787Z,101088.69
2022-08-08T23:12:51.706Z,101092.56
2022-08-08T23:16:41.175Z,101100.59
2022-08-08T23:18:12.517Z,101099.16
2022-08-08T23:20:41.066Z,101095.31
2022-08-08T23:23:11.610Z,101097.53
2022-08-08T23:25:47.830Z,101099.16
2022-08-08T23:28:18.681Z,101100.28
2022-08-08T23:30:47.292Z,101100.28
2022-08-08T23:33:20.910Z,101103.03
2022-08-08T23:36:08.151Z,101098.34
2022-08-08T23:38:44.117Z,101102.19
2022-08-08T23:41:17.605Z,101107.72
2022-08-08T23:43:56.456Z,101105.81
2022-08-08T23:49:05.805Z,101095.84
2022-08-08T23:49:15.294Z,101097.78
2022-08-08T23:52:05.860Z,101108.00
2022-08-08T23:54:43.007Z,101102.19
2022-08-08T23:57:27.458Z,101097.78
